createdAt,value
2022-11-03T00:02:10.750Z,100.00
2022-11-03T00:04:38.301Z,100.00
2022-11-03T00:07:05.772Z,100.00
2022-11-03T00:09:33.245Z,100.00
2022-11-03T00:12:01.849Z,100.00
2022-11-03T00:14:29.316Z,100.00
2022-11-03T00:16:56.813Z,100.00
2022-11-03T00:19:24.368Z,100.00
2022-11-03T00:21:52.672Z,100.00
2022-11-03T00:24:20.127Z,100.00
2022-11-03T00:26:47.580Z,100.00
2022-11-03T00:29:15.658Z,100.00
2022-11-03T00:31:44.791Z,100.00
2022-11-03T00:34:12.611Z,100.00
2022-11-03T00:36:42.111Z,100.00
2022-11-03T00:39:10.305Z,100.00
2022-11-03T00:41:38.317Z,100.00
2022-11-03T00:44:06.208Z,100.00
2022-11-03T00:46:36.415Z,100.00
2022-11-03T00:49:04.888Z,100.00
2022-11-03T00:51:34.628Z,100.00
2022-11-03T00:54:04.326Z,100.00
2022-11-03T00:56:37.322Z,100.00
2022-11-03T00:59:06.293Z,100.00
2022-11-03T01:01:40.575Z,100.00
2022-11-03T01:04:30.582Z,100.00
2022-11-03T01:07:00.228Z,100.00
2022-11-03T01:09:45.672Z,100.00
2022-11-03T01:12:17.749Z,100.00
2022-11-03T01:14:48.138Z,100.00
2022-11-03T01:17:17.001Z,100.00
2022-11-03T01:19:44.500Z,100.00
2022-11-03T01:22:13.261Z,100.00
2022-11-03T01:24:42.500Z,100.00
2022-11-03T01:27:13.225Z,100.00
2022-11-03T01:29:41.352Z,100.00
2022-11-03T01:32:09.351Z,100.00
2022-11-03T01:34:37.399Z,100.00
2022-11-03T01:37:05.333Z,100.00
2022-11-03T01:39:32.758Z,100.00
2022-11-03T01:42:00.108Z,100.00
2022-11-03T01:44:39.781Z,100.00
2022-11-03T01:47:30.398Z,100.00
2022-11-03T01:50:30.208Z,100.00
2022-11-03T01:52:58.741Z,100.00
2022-11-03T01:55:30.875Z,100.00
2022-11-03T01:58:04.086Z,100.00
2022-11-03T02:00:31.732Z,100.00
2022-11-03T02:03:00.157Z,100.00
2022-11-03T02:05:29.280Z,100.00
2022-11-03T02:08:18.219Z,100.00
2022-11-03T02:10:49.107Z,100.00
2022-11-03T02:13:22.336Z,100.00
2022-11-03T02:15:52.454Z,100.00
2022-11-03T02:18:24.247Z,100.00
2022-11-03T02:21:05.992Z,100.00
2022-11-03T02:23:44.774Z,100.00
2022-11-03T02:26:15.467Z,100.00
2022-11-03T02:28:43.171Z,100.00
2022-11-03T02:31:15.235Z,100.00
2022-11-03T02:33:54.803Z,100.00
2022-11-03T02:36:22.176Z,100.00
2022-11-03T02:39:05.511Z,100.00
2022-11-03T02:41:35.553Z,100.00
2022-11-03T02:44:04.897Z,100.00
2022-11-03T02:46:34.318Z,100.00
2022-11-03T02:49:01.945Z,100.00
2022-11-03T02:51:29.358Z,100.00
2022-11-03T02:54:20.930Z,100.00
2022-11-03T02:56:55.723Z,100.00
2022-11-03T02:59:30.915Z,100.00
2022-11-03T03:02:16.832Z,100.00
2022-11-03T03:04:53.609Z,100.00
2022-11-03T03:07:32.012Z,100.00
2022-11-03T03:10:12.792Z,100.00
2022-11-03T03:12:46.605Z,100.00
2022-11-03T03:15:16.520Z,100.00
2022-11-03T03:17:53.603Z,100.00
2022-11-03T03:20:24.474Z,100.00
2022-11-03T03:23:11.770Z,100.00
2022-11-03T03:25:46.658Z,100.00
2022-11-03T03:28:26.795Z,100.00
2022-11-03T03:30:57.024Z,100.00
2022-11-03T03:36:02.317Z,100.00
2022-11-03T03:38:40.146Z,100.00
2022-11-03T03:41:11.724Z,100.00
2022-11-03T03:43:39.888Z,100.00
2022-11-03T03:46:13.726Z,100.00
2022-11-03T03:48:41.158Z,100.00
2022-11-03T03:51:08.696Z,100.00
2022-11-03T03:53:36.118Z,100.00
2022-11-03T03:56:05.877Z,100.00
2022-11-03T03:58:33.643Z,100.00
2022-11-03T04:01:01.091Z,100.00
2022-11-03T04:03:29.543Z,100.00
2022-11-03T04:05:57.025Z,100.00
2022-11-03T04:08:24.437Z,100.00
2022-11-03T04:11:10.186Z,100.00
2022-11-03T04:13:56.139Z,100.00
2022-11-03T04:16:41.952Z,100.00
2022-11-03T04:19:30.668Z,100.00
2022-11-03T04:22:16.556Z,100.00
2022-11-03T04:24:53.175Z,100.00
2022-11-03T04:27:37.841Z,100.00
2022-11-03T04:30:15.659Z,100.00
2022-11-03T04:32:44.645Z,100.00
2022-11-03T04:35:17.468Z,100.00
2022-11-03T04:37:48.746Z,100.00
2022-11-03T04:40:17.837Z,100.00
2022-11-03T04:42:46.299Z,100.00
2022-11-03T04:45:24.442Z,100.00
2022-11-03T04:47:53.041Z,100.00
2022-11-03T04:50:22.923Z,100.00
2022-11-03T04:52:55.443Z,100.00
2022-11-03T04:55:23.044Z,100.00
2022-11-03T04:58:00.227Z,100.00
2022-11-03T05:00:27.603Z,100.00
2022-11-03T05:02:56.355Z,100.00
2022-11-03T05:05:26.511Z,100.00
2022-11-03T05:07:58.328Z,100.00
2022-11-03T05:10:29.926Z,100.00
2022-11-03T05:13:00.193Z,100.00
2022-11-03T05:15:32.413Z,100.00
2022-11-03T05:18:01.481Z,100.00
2022-11-03T05:20:37.044Z,100.00
2022-11-03T05:23:06.145Z,100.00
2022-11-03T05:25:45.197Z,100.00
2022-11-03T05:28:54.877Z,100.00
2022-11-03T05:31:27.640Z,100.00
2022-11-03T05:33:59.829Z,100.00
2022-11-03T05:36:30.202Z,100.00
2022-11-03T05:39:17.248Z,100.00
2022-11-03T05:41:44.767Z,100.00
2022-11-03T05:44:30.166Z,100.00
2022-11-03T05:47:01.914Z,100.00
2022-11-03T05:49:32.408Z,100.00
2022-11-03T05:52:01.357Z,100.00
2022-11-03T05:54:34.493Z,100.00
2022-11-03T05:57:02.037Z,100.00
2022-11-03T05:59:30.574Z,100.00
2022-11-03T06:02:01.270Z,100.00
2022-11-03T06:04:39.560Z,100.00
2022-11-03T06:07:29.304Z,100.00
2022-11-03T06:09:57.664Z,100.00
2022-11-03T06:12:26.003Z,100.00
2022-11-03T06:14:53.861Z,100.00
2022-11-03T06:17:28.671Z,100.00
2022-11-03T06:20:00.710Z,100.00
2022-11-03T06:22:36.948Z,100.00
2022-11-03T06:25:27.099Z,100.00
2022-11-03T06:27:57.729Z,100.00
2022-11-03T06:30:29.466Z,100.00
2022-11-03T06:33:01.844Z,100.00
2022-11-03T06:35:29.719Z,100.00
2022-11-03T06:37:58.208Z,100.00
2022-11-03T06:40:36.181Z,100.00
2022-11-03T06:43:34.849Z,100.00
2022-11-03T06:46:09.080Z,100.00
2022-11-03T06:48:38.965Z,100.00
2022-11-03T06:51:35.864Z,100.00
2022-11-03T06:54:09.767Z,100.00
2022-11-03T06:56:37.846Z,100.00
2022-11-03T06:59:14.318Z,100.00
2022-11-03T07:01:42.442Z,100.00
2022-11-03T07:04:22.578Z,100.00
2022-11-03T07:06:53.529Z,100.00
2022-11-03T07:09:26.016Z,100.00
2022-11-03T07:11:58.642Z,100.00
2022-11-03T07:14:29.529Z,100.00
2022-11-03T07:17:05.931Z,100.00
2022-11-03T07:19:45.678Z,100.00
2022-11-03T07:22:23.650Z,100.00
2022-11-03T07:24:54.055Z,100.00
2022-11-03T07:27:31.616Z,100.00
2022-11-03T07:30:05.709Z,100.00
2022-11-03T07:32:35.016Z,100.00
2022-11-03T07:35:25.891Z,100.00
2022-11-03T07:37:53.977Z,100.00
2022-11-03T07:40:27.954Z,100.00
2022-11-03T07:43:11.420Z,100.00
2022-11-03T07:45:43.714Z,100.00
2022-11-03T07:48:25.493Z,100.00
2022-11-03T07:50:59.335Z,100.00
2022-11-03T07:53:56.337Z,100.00
2022-11-03T07:56:27.408Z,100.00
2022-11-03T07:59:11.689Z,100.00
2022-11-03T08:01:43.894Z,100.00
2022-11-03T08:04:17.241Z,100.00
2022-11-03T08:06:44.607Z,100.00
2022-11-03T08:09:11.966Z,100.00
2022-11-03T08:11:39.520Z,100.00
2022-11-03T08:14:06.828Z,100.00
2022-11-03T08:16:34.164Z,100.00
2022-11-03T08:19:01.485Z,100.00
2022-11-03T08:21:29.004Z,100.00
2022-11-03T08:23:56.426Z,100.00
2022-11-03T08:26:24.059Z,100.00
2022-11-03T08:28:52.190Z,100.00
2022-11-03T08:31:19.654Z,100.00
2022-11-03T08:33:47.017Z,100.00
2022-11-03T08:36:14.663Z,100.00
2022-11-03T08:38:42.067Z,100.00
2022-11-03T08:41:09.497Z,100.00
2022-11-03T08:43:36.867Z,100.00
2022-11-03T08:46:15.394Z,100.00
2022-11-03T08:48:44.809Z,100.00
2022-11-03T08:51:13.725Z,100.00
2022-11-03T08:53:45.173Z,100.00
2022-11-03T08:56:14.504Z,100.00
2022-11-03T08:58:44.217Z,100.00
2022-11-03T09:01:11.876Z,100.00
2022-11-03T09:03:40.087Z,100.00
2022-11-03T09:06:08.195Z,100.00
2022-11-03T09:11:22.976Z,100.00
2022-11-03T09:13:50.307Z,100.00
2022-11-03T09:16:17.860Z,100.00
2022-11-03T09:18:45.720Z,100.00
2022-11-03T09:21:14.836Z,100.00
2022-11-03T09:23:42.492Z,100.00
2022-11-03T09:26:09.834Z,100.00
2022-11-03T09:28:37.214Z,100.00
2022-11-03T09:31:04.890Z,100.00
2022-11-03T09:33:32.401Z,100.00
2022-11-03T09:35:59.840Z,100.00
2022-11-03T09:38:27.162Z,100.00
2022-11-03T09:40:55.597Z,100.00
2022-11-03T09:43:22.952Z,100.00
2022-11-03T09:45:50.403Z,100.00
2022-11-03T09:48:17.866Z,100.00
2022-11-03T09:50:47.145Z,100.00
2022-11-03T09:53:14.773Z,100.00
2022-11-03T09:55:42.265Z,98.11
2022-11-03T09:58:17.695Z,94.36
2022-11-03T10:00:46.572Z,86.63
2022-11-03T10:03:20.790Z,78.75
2022-11-03T10:05:48.599Z,62.78
2022-11-03T10:08:24.154Z,57.34
2022-11-03T10:10:52.504Z,53.86
2022-11-03T10:13:41.552Z,51.56
2022-11-03T10:16:11.768Z,49.92
2022-11-03T10:18:39.312Z,48.40
2022-11-03T10:21:34.008Z,46.20
2022-11-03T10:24:01.406Z,45.31
2022-11-03T10:26:29.028Z,44.72
2022-11-03T10:29:05.393Z,43.99
2022-11-03T10:31:34.524Z,42.72
2022-11-03T10:34:02.417Z,41.96
2022-11-03T10:36:32.118Z,42.01
2022-11-03T10:39:01.613Z,41.50
2022-11-03T10:41:33.027Z,40.80
2022-11-03T10:44:12.490Z,42.01
2022-11-03T10:46:56.533Z,40.96
2022-11-03T10:49:24.951Z,41.54
2022-11-03T10:51:54.704Z,42.10
2022-11-03T10:54:25.388Z,43.19
2022-11-03T10:56:53.556Z,43.62
2022-11-03T10:59:38.087Z,45.30
2022-11-03T11:02:18.568Z,44.07
2022-11-03T11:05:00.688Z,42.77
2022-11-03T11:07:41.304Z,43.59
2022-11-03T11:10:19.134Z,43.29
2022-11-03T11:13:18.646Z,43.85
2022-11-03T11:15:48.475Z,44.57
2022-11-03T11:18:30.929Z,42.93
2022-11-03T11:21:02.299Z,43.04
2022-11-03T11:23:29.607Z,42.85
2022-11-03T11:26:36.090Z,43.17
2022-11-03T11:29:09.895Z,42.52
2022-11-03T11:31:41.437Z,42.25
2022-11-03T11:34:17.241Z,41.11
2022-11-03T11:36:54.465Z,41.64
2022-11-03T11:39:27.753Z,42.26
2022-11-03T11:42:18.642Z,43.40
2022-11-03T11:44:54.493Z,42.93
2022-11-03T11:47:32.383Z,42.97
2022-11-03T11:50:09.604Z,43.06
2022-11-03T11:53:05.287Z,43.59
2022-11-03T11:55:50.621Z,43.27
2022-11-03T11:58:23.349Z,43.72
2022-11-03T12:00:55.406Z,43.98
2022-11-03T12:03:46.698Z,44.26
2022-11-03T12:06:14.446Z,44.98
2022-11-03T12:08:43.018Z,45.00
2022-11-03T12:11:13.554Z,46.34
2022-11-03T12:13:52.639Z,48.67
2022-11-03T12:16:33.873Z,51.29
2022-11-03T12:19:38.841Z,51.63
2022-11-03T12:22:29.036Z,52.43
2022-11-03T12:24:58.076Z,55.17
2022-11-03T12:27:25.409Z,56.88
2022-11-03T12:29:54.668Z,59.99
2022-11-03T12:32:32.872Z,60.72
2022-11-03T12:35:02.328Z,60.19
2022-11-03T12:37:29.621Z,62.09
2022-11-03T12:39:56.964Z,62.93
2022-11-03T12:42:25.432Z,64.59
2022-11-03T12:44:53.522Z,64.80
2022-11-03T12:47:21.315Z,63.66
2022-11-03T12:49:49.203Z,64.42
2022-11-03T12:52:16.626Z,63.60
2022-11-03T12:54:44.427Z,65.14
2022-11-03T12:57:11.743Z,65.41
2022-11-03T12:59:39.287Z,66.36
2022-11-03T13:02:06.948Z,67.50
2022-11-03T13:04:34.438Z,68.06
2022-11-03T13:07:01.790Z,69.34
2022-11-03T13:09:29.258Z,68.91
2022-11-03T13:12:15.233Z,70.87
2022-11-03T13:14:45.986Z,71.21
2022-11-03T13:17:15.400Z,71.34
2022-11-03T13:19:42.786Z,72.52
2022-11-03T13:22:10.530Z,72.95
2022-11-03T13:24:38.477Z,74.22
2022-11-03T13:27:05.899Z,74.00
2022-11-03T13:29:35.753Z,73.61
2022-11-03T13:32:04.736Z,74.18
2022-11-03T13:34:32.494Z,74.95
2022-11-03T13:37:00.026Z,75.37
2022-11-03T13:39:27.422Z,75.37
2022-11-03T13:41:54.796Z,76.31
2022-11-03T13:44:22.455Z,77.06
2022-11-03T13:46:50.051Z,76.77
2022-11-03T13:52:05.267Z,77.31
2022-11-03T14:00:13.763Z,79.47
2022-11-03T14:05:29.302Z,80.33
2022-11-03T14:07:56.653Z,80.25
2022-11-03T14:10:23.959Z,80.68
2022-11-03T14:12:51.366Z,81.40
2022-11-03T14:15:18.851Z,82.69
2022-11-03T14:17:46.149Z,82.37
2022-11-03T14:20:14.207Z,83.47
2022-11-03T14:22:41.616Z,83.83
2022-11-03T14:25:09.979Z,84.93
2022-11-03T14:27:37.552Z,85.12
2022-11-03T14:30:05.587Z,86.24
2022-11-03T14:32:32.935Z,87.58
2022-11-03T14:35:00.296Z,90.10
2022-11-03T14:37:28.629Z,90.32
2022-11-03T14:39:56.197Z,92.59
2022-11-03T14:42:23.610Z,93.04
2022-11-03T14:47:23.523Z,94.15
2022-11-03T14:49:51.001Z,94.99
2022-11-03T14:52:18.634Z,97.13
2022-11-03T14:54:46.098Z,97.08
2022-11-03T14:57:13.523Z,98.62
2022-11-03T14:59:41.030Z,100.00
2022-11-03T15:02:08.508Z,100.00
2022-11-03T15:04:35.980Z,100.00
2022-11-03T15:07:03.516Z,100.00
2022-11-03T15:09:31.069Z,100.00
2022-11-03T15:11:58.442Z,100.00
2022-11-03T15:14:25.866Z,100.00
2022-11-03T15:16:53.179Z,100.00
2022-11-03T15:19:20.616Z,100.00
2022-11-03T15:21:48.017Z,100.00
2022-11-03T15:27:02.923Z,100.00
2022-11-03T15:29:30.291Z,100.00
2022-11-03T15:31:57.685Z,100.00
2022-11-03T15:34:25.092Z,100.00
2022-11-03T15:36:52.564Z,100.00
2022-11-03T15:39:19.986Z,100.00
2022-11-03T15:41:47.406Z,100.00
2022-11-03T15:44:15.292Z,100.00
2022-11-03T15:46:43.662Z,100.00
2022-11-03T15:49:11.034Z,100.00
2022-11-03T15:51:38.433Z,100.00
2022-11-03T15:54:05.738Z,100.00
2022-11-03T15:56:33.153Z,100.00
2022-11-03T15:59:00.547Z,100.00
2022-11-03T16:01:28.034Z,100.00
2022-11-03T16:03:55.613Z,100.00
2022-11-03T16:06:35.127Z,100.00
2022-11-03T16:09:10.710Z,100.00
2022-11-03T16:11:38.091Z,100.00
2022-11-03T16:14:05.542Z,100.00
2022-11-03T16:16:32.856Z,100.00
2022-11-03T16:19:00.200Z,100.00
2022-11-03T16:21:28.854Z,100.00
2022-11-03T16:23:56.288Z,100.00
2022-11-03T16:26:24.200Z,100.00
2022-11-03T16:28:51.960Z,100.00
2022-11-03T16:31:19.325Z,100.00
2022-11-03T16:33:46.688Z,100.00
2022-11-03T16:36:14.076Z,100.00
2022-11-03T16:38:41.437Z,100.00
2022-11-03T16:41:08.904Z,100.00
2022-11-03T16:43:36.276Z,100.00
2022-11-03T16:46:03.721Z,100.00
2022-11-03T16:48:31.163Z,100.00
2022-11-03T16:50:58.522Z,100.00
2022-11-03T16:53:26.154Z,100.00
2022-11-03T16:55:53.479Z,100.00
2022-11-03T16:58:20.968Z,100.00
2022-11-03T17:00:48.438Z,100.00
2022-11-03T17:03:16.397Z,100.00
2022-11-03T17:05:43.708Z,100.00
2022-11-03T17:08:31.933Z,100.00
2022-11-03T17:10:58.566Z,100.00
2022-11-03T17:13:26.090Z,100.00
2022-11-03T17:15:53.475Z,100.00
2022-11-03T17:18:20.906Z,100.00
2022-11-03T17:20:48.209Z,100.00
2022-11-03T17:23:15.735Z,100.00
2022-11-03T17:25:43.148Z,100.00
2022-11-03T17:28:12.076Z,100.00
2022-11-03T17:30:40.364Z,100.00
2022-11-03T17:33:13.113Z,100.00
2022-11-03T17:35:42.674Z,100.00
2022-11-03T17:38:17.691Z,100.00
2022-11-03T17:40:47.444Z,100.00
2022-11-03T17:43:18.577Z,100.00
2022-11-03T17:45:46.192Z,100.00
2022-11-03T17:48:13.744Z,100.00
2022-11-03T17:50:48.145Z,100.00
2022-11-03T17:53:27.233Z,100.00
2022-11-03T17:56:28.575Z,100.00
2022-11-03T17:58:46.844Z,100.00
2022-11-03T18:01:23.123Z,100.00
2022-11-03T18:03:52.056Z,100.00
2022-11-03T18:06:20.891Z,100.00
2022-11-03T18:08:48.953Z,100.00
2022-11-03T18:11:41.338Z,100.00
2022-11-03T18:14:08.840Z,100.00
2022-11-03T18:16:36.231Z,100.00
2022-11-03T18:19:04.256Z,100.00
2022-11-03T18:21:31.711Z,100.00
2022-11-03T18:23:59.256Z,100.00
2022-11-03T18:26:27.411Z,100.00
2022-11-03T18:28:55.140Z,100.00
2022-11-03T18:31:53.810Z,100.00
2022-11-03T18:34:25.340Z,100.00
2022-11-03T18:36:53.403Z,100.00
2022-11-03T18:39:24.539Z,100.00
2022-11-03T18:41:52.102Z,100.00
2022-11-03T18:44:28.790Z,100.00
2022-11-03T18:46:56.850Z,100.00
2022-11-03T18:49:27.132Z,100.00
2022-11-03T18:52:04.401Z,100.00
2022-11-03T18:54:35.235Z,100.00
2022-11-03T18:57:03.471Z,100.00
2022-11-03T18:59:37.643Z,100.00
2022-11-03T19:02:28.216Z,100.00
2022-11-03T19:04:55.722Z,100.00
2022-11-03T19:07:27.703Z,100.00
2022-11-03T19:09:55.468Z,100.00
2022-11-03T19:12:23.254Z,100.00
2022-11-03T19:14:50.819Z,100.00
2022-11-03T19:17:23.325Z,100.00
2022-11-03T19:19:53.117Z,100.00
2022-11-03T19:22:22.806Z,100.00
2022-11-03T19:24:50.419Z,100.00
2022-11-03T19:27:22.472Z,100.00
2022-11-03T19:29:50.219Z,100.00
2022-11-03T19:32:26.870Z,100.00
2022-11-03T19:35:06.008Z,100.00
2022-11-03T19:37:35.891Z,100.00
2022-11-03T19:40:08.609Z,100.00
2022-11-03T19:42:39.550Z,100.00
2022-11-03T19:45:18.731Z,100.00
2022-11-03T19:50:53.115Z,100.00
2022-11-03T19:53:29.075Z,100.00
2022-11-03T19:55:57.163Z,100.00
2022-11-03T19:58:26.987Z,100.00
2022-11-03T20:00:55.501Z,100.00
2022-11-03T20:03:24.164Z,100.00
2022-11-03T20:05:54.770Z,100.00
2022-11-03T20:08:32.154Z,100.00
2022-11-03T20:10:59.909Z,100.00
2022-11-03T20:13:32.136Z,100.00
2022-11-03T20:16:01.325Z,100.00
2022-11-03T20:18:29.031Z,100.00
2022-11-03T20:20:56.789Z,100.00
2022-11-03T20:23:29.429Z,100.00
2022-11-03T20:25:57.233Z,100.00
2022-11-03T20:28:28.389Z,100.00
2022-11-03T20:30:57.128Z,100.00
2022-11-03T20:33:25.813Z,100.00
2022-11-03T20:35:54.775Z,100.00
2022-11-03T20:38:24.848Z,100.00
2022-11-03T20:41:03.622Z,100.00
2022-11-03T20:43:44.284Z,100.00
2022-11-03T20:46:33.539Z,100.00
2022-11-03T20:49:00.989Z,100.00
2022-11-03T20:51:33.091Z,100.00
2022-11-03T20:54:02.250Z,100.00
2022-11-03T20:56:29.598Z,100.00
2022-11-03T20:58:58.268Z,100.00
2022-11-03T21:01:33.301Z,100.00
2022-11-03T21:04:02.308Z,100.00
2022-11-03T21:06:31.679Z,100.00
2022-11-03T21:09:00.122Z,100.00
2022-11-03T21:11:29.730Z,100.00
2022-11-03T21:13:59.839Z,100.00
2022-11-03T21:16:47.768Z,100.00
2022-11-03T21:19:36.707Z,100.00
2022-11-03T21:22:30.975Z,100.00
2022-11-03T21:25:02.007Z,100.00
2022-11-03T21:27:29.460Z,100.00
2022-11-03T21:30:00.334Z,100.00
2022-11-03T21:32:28.068Z,100.00
2022-11-03T21:34:55.400Z,100.00
2022-11-03T21:37:22.716Z,100.00
2022-11-03T21:39:50.044Z,100.00
2022-11-03T21:42:36.156Z,100.00
2022-11-03T21:45:03.807Z,100.00
2022-11-03T21:47:31.125Z,100.00
2022-11-03T21:52:33.491Z,100.00
2022-11-03T21:55:02.681Z,100.00
2022-11-03T21:57:30.793Z,100.00
2022-11-03T21:59:58.606Z,100.00
2022-11-03T22:02:27.067Z,100.00
2022-11-03T22:04:55.443Z,100.00
2022-11-03T22:07:23.412Z,100.00
2022-11-03T22:09:50.942Z,100.00
2022-11-03T22:12:18.276Z,100.00
2022-11-03T22:15:04.079Z,100.00
2022-11-03T22:17:34.804Z,100.00
2022-11-03T22:20:21.035Z,100.00
2022-11-03T22:23:06.920Z,100.00
2022-11-03T22:25:52.783Z,100.00
2022-11-03T22:28:20.536Z,100.00
2022-11-03T22:31:06.572Z,100.00
2022-11-03T22:33:53.987Z,100.00
2022-11-03T22:36:24.035Z,100.00
2022-11-03T22:39:10.241Z,100.00
2022-11-03T22:41:56.326Z,100.00
2022-11-03T22:44:42.330Z,100.00
2022-11-03T22:47:11.201Z,100.00
2022-11-03T22:49:39.602Z,100.00
2022-11-03T22:52:07.430Z,100.00
2022-11-03T22:54:34.737Z,100.00
2022-11-03T22:57:02.056Z,100.00
2022-11-03T22:59:29.344Z,100.00
2022-11-03T23:01:56.728Z,100.00
2022-11-03T23:04:24.189Z,100.00
2022-11-03T23:06:51.545Z,100.00
2022-11-03T23:09:18.851Z,100.00
2022-11-03T23:11:46.319Z,100.00
2022-11-03T23:14:13.572Z,100.00
2022-11-03T23:16:45.843Z,100.00
2022-11-03T23:19:34.431Z,100.00
2022-11-03T23:22:01.923Z,100.00
2022-11-03T23:24:48.017Z,100.00
2022-11-03T23:27:15.620Z,100.00
2022-11-03T23:29:42.925Z,100.00
2022-11-03T23:32:10.370Z,100.00
2022-11-03T23:34:38.989Z,100.00
2022-11-03T23:37:06.334Z,100.00
2022-11-03T23:39:33.630Z,100.00
2022-11-03T23:42:00.984Z,100.00
2022-11-03T23:44:48.292Z,100.00
2022-11-03T23:47:35.291Z,100.00
2022-11-03T23:50:03.386Z,100.00
2022-11-03T23:52:30.943Z,100.00
2022-11-03T23:54:58.623Z,100.00
2022-11-03T23:57:46.531Z,100.00
